EGXW

RAF Waddington

Airport
ICAO code
EGXW
Summary
ICAO Region
EUR
ICAO Territory
Location

RAF Waddington, England, United Kingdom,

Elevation
231 ft
Coordinates
53° 9' 58" N , 0° 31' 26" W
KCC
Metar
EGXW 220150Z AUTO 20016KT 9999 NCD 08/05 Q0991

Description

Military airbase.

Climatology

Temperate Marine climate/Oceanic climate (Köppen climate classification Cfb). Moderately cool summer and comparatively warm winter with a temperature range of only 14°C. Prevailing south-westerly winds from the Atlantic Ocean.

Runways

Designator Length Width Surface Rops
2/20 2743 61 ASP No/No

Airport map

Aerial View

SKYbrary Partners:

Safety knowledge contributed by: